Terminal Aerodrome Forecast
Issued by NWS

Home | Current Version | Previous Version | Text Only | Print | Product List | Glossary On
Versions: 1 2 3 4 5 6 7 8 9 10 11 12 13 14 15 16 17 18 19 20
000
FTUS43 KLSX 230700 AAA
TAFCPS
TAF AMD
KCPS 230733Z 2308/2406 22005KT P6SM SCT015 BKN035
     FM230800 24005KT P6SM SCT035
     FM231500 21005KT P6SM BKN100
     FM232300 VRB04KT P6SM BKN100=

USA.gov is the U.S. government's official web portal to all federal, state and local government web resources and services.